Time;durP1;ratioP1;P1;durP2;ratioP2;P2;SDS_P1;SDS_P2;PMS_P1;PMS_P2;Temp;Humidity;BMP_temperature;BMP_pressure;BME280_temperature;BME280_humidity;BME280_pressure;Samples;Min_cycle;Max_cycle;Signal;HPM_P1;HPM_P2
2022/09/16 00:00:45;;;;;;;7.65;5.20;;;;;;;;;;5051964;28;20511;-63
2022/09/16 00:03:11;;;;;;;6.65;5.28;;;;;;;;;;5051909;28;20029;-63
2022/09/16 00:05:43;;;;;;;7.60;4.40;;;;;;;;;;5051819;28;20028;-63
2022/09/16 00:08:11;;;;;;;6.10;4.55;;;;;;;;;;5051761;28;20021;-70
2022/09/16 00:10:37;;;;;;;5.53;4.63;;;;;;;;;;5051619;28;20802;-69
2022/09/16 00:13:03;;;;;;;5.47;4.55;;;;;;;;;;5051771;28;20103;-69
2022/09/16 00:15:28;;;;;;;5.00;4.45;;;;;;;;;;5051730;28;20159;-68
2022/09/16 00:17:54;;;;;;;4.97;3.85;;;;;;;;;;5051818;28;20044;-69
2022/09/16 00:20:19;;;;;;;4.22;3.85;;;;;;;;;;5049074;28;20025;-69
2022/09/16 00:22:44;;;;;;;4.43;3.90;;;;;;;;;;5051717;28;20509;-68
2022/09/16 00:25:10;;;;;;;5.25;4.25;;;;;;;;;;5051596;28;20025;-68
2022/09/16 00:27:35;;;;;;;5.70;3.83;;;;;;;;;;5033896;28;20036;-68
2022/09/16 00:30:01;;;;;;;5.20;3.50;;;;;;;;;;5051544;28;20021;-68
2022/09/16 00:32:26;;;;;;;5.28;3.53;;;;;;;;;;5033502;28;20025;-68
2022/09/16 00:34:51;;;;;;;3.67;3.20;;;;;;;;;;5051426;28;20696;-69
2022/09/16 00:37:17;;;;;;;7.35;3.65;;;;;;;;;;5051249;28;20028;-70
2022/09/16 00:39:42;;;;;;;3.65;2.85;;;;;;;;;;5051465;28;20103;-69
2022/09/16 00:42:10;;;;;;;3.85;3.53;;;;;;;;;;5033588;28;20054;-69
2022/09/16 00:44:55;;;;;;;6.25;3.63;;;;;;;;;;5051375;28;20096;-69
2022/09/16 00:47:26;;;;;;;4.28;3.08;;;;;;;;;;5048710;28;20137;-69
2022/09/16 00:49:52;;;;;;;5.03;3.63;;;;;;;;;;5051597;28;20083;-63
2022/09/16 00:52:18;;;;;;;3.83;3.53;;;;;;;;;;5051407;28;20048;-64
2022/09/16 00:54:44;;;;;;;3.75;3.30;;;;;;;;;;5033656;28;20358;-63
2022/09/16 00:57:11;;;;;;;4.72;3.30;;;;;;;;;;5051485;28;20097;-63
2022/09/16 00:59:40;;;;;;;3.88;3.03;;;;;;;;;;5033516;28;20097;-63
2022/09/16 01:02:07;;;;;;;4.22;3.05;;;;;;;;;;5051467;28;20047;-63
2022/09/16 01:04:36;;;;;;;7.18;3.15;;;;;;;;;;5054802;28;20025;-64
2022/09/16 01:07:01;;;;;;;2.97;2.70;;;;;;;;;;5052552;28;20028;-63
2022/09/16 01:09:28;;;;;;;4.82;2.97;;;;;;;;;;5055443;28;20098;-63
2022/09/16 01:11:53;;;;;;;3.50;3.08;;;;;;;;;;5055142;28;20492;-64
2022/09/16 01:17:20;;;;;;;4.45;3.05;;;;;;;;;;5052865;28;20032;-64
2022/09/16 01:19:59;;;;;;;3.53;3.22;;;;;;;;;;5053085;28;20021;-63
2022/09/16 01:22:37;;;;;;;3.25;2.95;;;;;;;;;;5052817;28;20404;-64
2022/09/16 01:25:10;;;;;;;3.70;2.95;;;;;;;;;;5052708;28;20052;-63
2022/09/16 01:27:36;;;;;;;3.22;2.92;;;;;;;;;;5036692;28;20465;-63
2022/09/16 01:30:20;;;;;;;3.78;3.28;;;;;;;;;;5055016;28;20028;-64
2022/09/16 01:32:59;;;;;;;2.80;2.53;;;;;;;;;;5052819;28;20059;-63
2022/09/16 01:35:30;;;;;;;4.63;3.33;;;;;;;;;;5052584;28;20022;-63
2022/09/16 01:38:02;;;;;;;2.55;2.33;;;;;;;;;;5054620;28;20025;-63
2022/09/16 01:40:30;;;;;;;6.43;3.40;;;;;;;;;;5054662;28;20416;-63
2022/09/16 01:43:13;;;;;;;3.50;3.20;;;;;;;;;;5054326;28;20092;-63
2022/09/16 01:45:40;;;;;;;4.03;2.90;;;;;;;;;;5054269;28;20473;-63
2022/09/16 01:48:06;;;;;;;3.97;2.70;;;;;;;;;;5036541;28;20100;-63
2022/09/16 01:50:33;;;;;;;4.35;2.80;;;;;;;;;;5025752;28;20136;-63
2022/09/16 01:52:58;;;;;;;4.40;2.80;;;;;;;;;;5042420;28;20020;-63
2022/09/16 01:55:42;;;;;;;2.67;2.47;;;;;;;;;;5043499;28;20405;-63
2022/09/16 01:58:14;;;;;;;3.13;2.47;;;;;;;;;;5040437;28;20032;-64
2022/09/16 02:00:41;;;;;;;2.72;2.35;;;;;;;;;;5045000;28;20031;-63
2022/09/16 02:03:27;;;;;;;3.28;2.80;;;;;;;;;;5026452;28;20018;-63
2022/09/16 02:05:55;;;;;;;2.72;2.53;;;;;;;;;;5007189;28;20037;-64
2022/09/16 02:08:26;;;;;;;5.47;2.17;;;;;;;;;;5042859;28;20373;-63
2022/09/16 02:10:58;;;;;;;5.25;2.80;;;;;;;;;;5043308;28;20033;-63
2022/09/16 02:13:29;;;;;;;5.38;2.83;;;;;;;;;;5039968;28;20503;-63
2022/09/16 02:15:57;;;;;;;4.32;2.55;;;;;;;;;;5044257;28;20408;-64
2022/09/16 02:18:26;;;;;;;3.90;2.50;;;;;;;;;;5037936;28;20084;-63
2022/09/16 02:20:53;;;;;;;3.25;2.55;;;;;;;;;;5042916;28;20039;-63
2022/09/16 02:23:21;;;;;;;3.45;2.22;;;;;;;;;;5024598;28;20095;-63
2022/09/16 02:25:47;;;;;;;2.75;2.50;;;;;;;;;;5026058;28;20040;-63
2022/09/16 02:28:18;;;;;;;2.50;2.30;;;;;;;;;;5026893;28;20032;-64
2022/09/16 02:30:46;;;;;;;4.57;2.17;;;;;;;;;;5039485;28;20032;-63
2022/09/16 02:33:14;;;;;;;4.95;2.65;;;;;;;;;;5044403;28;20017;-64
2022/09/16 02:35:40;;;;;;;2.97;2.50;;;;;;;;;;5044378;28;20029;-63
2022/09/16 02:38:11;;;;;;;2.50;2.30;;;;;;;;;;5025144;28;20021;-64
2022/09/16 02:40:40;;;;;;;6.47;2.50;;;;;;;;;;5042207;28;20038;-64
2022/09/16 02:43:05;;;;;;;2.85;2.63;;;;;;;;;;5043601;28;20017;-63
2022/09/16 02:45:51;;;;;;;4.00;2.63;;;;;;;;;;5043575;28;20029;-64
2022/09/16 02:48:17;;;;;;;5.13;2.25;;;;;;;;;;5040623;28;20045;-64
2022/09/16 02:50:51;;;;;;;2.85;2.40;;;;;;;;;;5053096;28;20033;-64
2022/09/16 02:53:23;;;;;;;4.75;2.67;;;;;;;;;;5053066;28;20017;-63
2022/09/16 02:55:52;;;;;;;3.72;2.38;;;;;;;;;;5053344;28;20025;-70
2022/09/16 02:58:17;;;;;;;5.68;2.55;;;;;;;;;;5034890;28;20017;-71
2022/09/16 03:00:45;;;;;;;6.57;2.75;;;;;;;;;;5053220;28;20031;-69
2022/09/16 03:03:11;;;;;;;4.75;3.20;;;;;;;;;;5052986;28;20526;-69
2022/09/16 03:05:49;;;;;;;3.38;3.08;;;;;;;;;;5053087;28;20060;-70
2022/09/16 03:08:14;;;;;;;3.13;2.75;;;;;;;;;;5052975;28;20048;-70
2022/09/16 03:10:43;;;;;;;5.15;3.15;;;;;;;;;;5034843;28;20388;-70
2022/09/16 03:13:14;;;;;;;7.93;3.35;;;;;;;;;;5053097;28;20029;-70
2022/09/16 03:15:51;;;;;;;7.00;3.83;;;;;;;;;;5052831;28;20863;-69
2022/09/16 03:18:23;;;;;;;5.65;3.35;;;;;;;;;;5052686;28;20067;-70
2022/09/16 03:20:48;;;;;;;4.95;3.35;;;;;;;;;;5034636;28;20446;-70
2022/09/16 03:23:32;;;;;;;4.20;3.10;;;;;;;;;;5034455;28;20045;-70
2022/09/16 03:26:17;;;;;;;4.97;3.95;;;;;;;;;;5051554;28;20477;-69
2022/09/16 03:28:42;;;;;;;6.60;3.75;;;;;;;;;;5050003;28;20044;-69
2022/09/16 03:31:16;;;;;;;6.10;3.07;;;;;;;;;;5052537;28;20020;-69
2022/09/16 03:33:46;;;;;;;4.20;3.60;;;;;;;;;;5031787;28;20815;-71
2022/09/16 03:36:14;;;;;;;6.05;3.42;;;;;;;;;;5053052;28;20112;-69
2022/09/16 03:38:40;;;;;;;3.80;3.33;;;;;;;;;;5054571;28;20029;-69
2022/09/16 03:41:06;;;;;;;5.07;3.60;;;;;;;;;;5053962;28;20031;-69
2022/09/16 03:43:31;;;;;;;5.55;3.83;;;;;;;;;;5054156;28;20028;-69
2022/09/16 03:45:57;;;;;;;7.32;3.40;;;;;;;;;;5054145;28;20483;-69
2022/09/16 03:48:22;;;;;;;4.63;3.33;;;;;;;;;;5053971;28;20033;-69
2022/09/16 03:50:48;;;;;;;6.13;3.42;;;;;;;;;;5053974;28;20059;-69
2022/09/16 03:53:13;;;;;;;3.75;3.15;;;;;;;;;;5069172;28;20025;-69
2022/09/16 03:55:38;;;;;;;3.72;2.72;;;;;;;;;;5054012;28;20024;-69
2022/09/16 03:58:04;;;;;;;3.28;2.88;;;;;;;;;;5053920;28;20032;-69
2022/09/16 04:00:29;;;;;;;4.65;3.00;;;;;;;;;;5035850;28;20039;-69
2022/09/16 04:02:55;;;;;;;3.60;3.05;;;;;;;;;;5035746;28;20025;-69
2022/09/16 04:05:20;;;;;;;4.43;2.58;;;;;;;;;;5054106;28;20025;-69
2022/09/16 04:07:47;;;;;;;4.30;3.10;;;;;;;;;;5054145;28;20028;-69
2022/09/16 04:10:14;;;;;;;3.35;2.75;;;;;;;;;;5053744;28;20017;-69
2022/09/16 04:12:39;;;;;;;2.92;2.63;;;;;;;;;;5053594;28;20599;-69
2022/09/16 04:15:05;;;;;;;5.55;3.08;;;;;;;;;;5035878;28;20104;-69
2022/09/16 04:17:31;;;;;;;4.05;3.20;;;;;;;;;;5053785;28;20033;-69
2022/09/16 04:19:56;;;;;;;6.10;2.95;;;;;;;;;;5053395;28;20021;-69
2022/09/16 04:22:22;;;;;;;4.50;3.28;;;;;;;;;;5053117;28;20029;-71
2022/09/16 04:24:47;;;;;;;5.13;2.95;;;;;;;;;;5053837;28;20028;-70
2022/09/16 04:27:13;;;;;;;4.45;2.60;;;;;;;;;;5052960;28;20028;-71
2022/09/16 04:29:38;;;;;;;4.80;2.58;;;;;;;;;;5052901;28;20021;-70
2022/09/16 04:32:03;;;;;;;3.20;2.80;;;;;;;;;;5035231;28;20043;-71
2022/09/16 04:34:31;;;;;;;9.55;3.17;;;;;;;;;;5053079;28;20021;-70
2022/09/16 04:36:56;;;;;;;3.05;2.83;;;;;;;;;;5053090;28;20036;-70
2022/09/16 04:39:22;;;;;;;3.17;2.88;;;;;;;;;;5056448;28;20345;-70
2022/09/16 04:41:48;;;;;;;5.30;2.63;;;;;;;;;;5056826;28;20105;-69
2022/09/16 04:44:14;;;;;;;3.10;2.78;;;;;;;;;;5056699;28;20111;-69
2022/09/16 04:46:39;;;;;;;3.80;2.95;;;;;;;;;;5056852;28;20075;-70
2022/09/16 04:49:05;;;;;;;4.13;2.83;;;;;;;;;;5038447;28;20041;-69
2022/09/16 04:51:31;;;;;;;4.38;3.15;;;;;;;;;;5038609;28;20248;-71
2022/09/16 04:53:57;;;;;;;4.85;3.28;;;;;;;;;;5056441;28;20040;-71
2022/09/16 04:56:24;;;;;;;10.93;3.17;;;;;;;;;;5056456;28;20033;-71
2022/09/16 04:58:51;;;;;;;5.68;3.42;;;;;;;;;;5056631;28;20013;-70
2022/09/16 05:01:18;;;;;;;3.17;2.92;;;;;;;;;;5056332;28;20060;-70
2022/09/16 05:03:45;;;;;;;4.55;2.85;;;;;;;;;;5056423;28;20013;-70
2022/09/16 05:06:11;;;;;;;4.40;2.67;;;;;;;;;;5056173;28;20388;-70
2022/09/16 05:08:37;;;;;;;5.13;2.97;;;;;;;;;;5056365;28;20532;-69
2022/09/16 05:11:04;;;;;;;3.63;2.72;;;;;;;;;;5055777;28;20052;-69
2022/09/16 05:13:29;;;;;;;3.40;2.60;;;;;;;;;;5055646;28;20021;-69
2022/09/16 05:15:55;;;;;;;2.63;2.45;;;;;;;;;;5037259;28;20044;-69
2022/09/16 05:18:23;;;;;;;2.70;2.47;;;;;;;;;;5038132;28;20025;-70
2022/09/16 05:20:48;;;;;;;3.70;2.58;;;;;;;;;;5055427;28;20025;-70
2022/09/16 05:23:13;;;;;;;2.53;2.33;;;;;;;;;;5053997;28;20511;-70
2022/09/16 05:25:39;;;;;;;2.58;2.33;;;;;;;;;;5053474;28;20032;-70
2022/09/16 05:28:04;;;;;;;2.78;2.58;;;;;;;;;;5053928;28;20488;-69
2022/09/16 05:30:29;;;;;;;3.88;2.80;;;;;;;;;;5037710;28;20123;-69
2022/09/16 05:32:55;;;;;;;4.90;2.33;;;;;;;;;;5056356;28;20049;-68
2022/09/16 05:35:20;;;;;;;3.05;2.78;;;;;;;;;;5056427;28;20481;-68
2022/09/16 05:37:45;;;;;;;2.35;2.13;;;;;;;;;;5056248;28;20017;-70
2022/09/16 05:40:11;;;;;;;5.40;2.60;;;;;;;;;;5073057;23;20444;-64
2022/09/16 05:42:37;;;;;;;3.65;2.65;;;;;;;;;;5054269;28;20045;-63
2022/09/16 05:45:02;;;;;;;2.70;2.17;;;;;;;;;;5071590;28;20032;-63
2022/09/16 05:47:27;;;;;;;3.83;2.35;;;;;;;;;;5056383;28;20032;-63
2022/09/16 05:49:53;;;;;;;4.25;2.20;;;;;;;;;;5054913;28;20017;-63
2022/09/16 05:52:19;;;;;;;3.05;2.20;;;;;;;;;;5056203;28;20127;-63
2022/09/16 05:54:44;;;;;;;2.97;2.53;;;;;;;;;;5054347;28;20491;-63
2022/09/16 05:57:09;;;;;;;2.58;2.38;;;;;;;;;;5036320;28;20021;-63
2022/09/16 05:59:35;;;;;;;3.60;2.65;;;;;;;;;;5054773;28;20407;-63
2022/09/16 06:02:00;;;;;;;2.40;2.13;;;;;;;;;;5037027;28;20041;-63
2022/09/16 06:04:25;;;;;;;2.83;2.03;;;;;;;;;;5037314;28;20029;-63
2022/09/16 06:06:51;;;;;;;3.05;1.90;;;;;;;;;;5055015;28;20021;-63
2022/09/16 06:09:18;;;;;;;3.63;2.10;;;;;;;;;;5054793;28;20047;-63
2022/09/16 06:11:45;;;;;;;2.58;2.38;;;;;;;;;;5037254;28;20488;-63
2022/09/16 06:14:11;;;;;;;2.60;1.98;;;;;;;;;;5055262;28;20017;-63
2022/09/16 06:16:36;;;;;;;4.18;2.20;;;;;;;;;;5054228;28;20025;-63
2022/09/16 06:19:03;;;;;;;2.13;1.92;;;;;;;;;;5056019;28;20013;-63
2022/09/16 06:21:29;;;;;;;2.15;1.95;;;;;;;;;;5054834;28;20033;-63
2022/09/16 06:23:54;;;;;;;3.13;2.38;;;;;;;;;;5054744;28;20388;-63
2022/09/16 06:26:21;;;;;;;7.78;3.08;;;;;;;;;;5055326;28;20025;-63
2022/09/16 06:28:47;;;;;;;4.93;3.13;;;;;;;;;;5054950;28;20021;-63
2022/09/16 06:31:14;;;;;;;4.60;2.47;;;;;;;;;;5054904;28;20032;-63
2022/09/16 06:33:39;;;;;;;6.25;3.08;;;;;;;;;;5054955;28;20594;-63
2022/09/16 06:36:12;;;;;;;4.93;3.25;;;;;;;;;;5055186;28;20049;-63
2022/09/16 06:38:38;;;;;;;4.68;3.25;;;;;;;;;;5055556;28;20032;-63
2022/09/16 06:41:07;;;;;;;3.55;3.25;;;;;;;;;;5054932;28;20036;-63
2022/09/16 06:43:33;;;;;;;3.40;3.10;;;;;;;;;;5055199;28;20025;-63
2022/09/16 06:45:59;;;;;;;4.38;3.10;;;;;;;;;;5054658;28;20039;-63
2022/09/16 06:48:26;;;;;;;4.70;2.50;;;;;;;;;;5053485;28;20033;-63
2022/09/16 06:50:58;;;;;;;3.67;2.67;;;;;;;;;;5054354;28;20035;-63
2022/09/16 06:53:24;;;;;;;3.55;2.67;;;;;;;;;;5053464;28;20183;-63
2022/09/16 06:55:49;;;;;;;3.30;3.00;;;;;;;;;;5053517;28;20489;-63
2022/09/16 06:58:14;;;;;;;4.97;3.28;;;;;;;;;;5053742;28;20257;-63
2022/09/16 07:00:40;;;;;;;3.63;2.80;;;;;;;;;;5053369;28;20098;-63
2022/09/16 07:03:06;;;;;;;4.68;3.20;;;;;;;;;;5053454;28;20158;-63
2022/09/16 07:05:31;;;;;;;3.88;3.05;;;;;;;;;;5053597;28;20088;-63
2022/09/16 07:07:56;;;;;;;7.80;2.55;;;;;;;;;;5053831;28;20363;-63
2022/09/16 07:10:23;;;;;;;5.05;3.25;;;;;;;;;;5055019;28;20013;-63
2022/09/16 07:12:48;;;;;;;4.18;2.90;;;;;;;;;;5054443;28;20037;-63
2022/09/16 07:15:13;;;;;;;9.45;3.70;;;;;;;;;;5036541;28;20031;-63
2022/09/16 07:17:39;;;;;;;6.43;3.35;;;;;;;;;;5054923;28;20052;-63
2022/09/16 07:20:05;;;;;;;7.70;3.70;;;;;;;;;;5069729;28;20055;-63
2022/09/16 07:22:31;;;;;;;7.43;3.47;;;;;;;;;;5054257;28;20025;-63
2022/09/16 07:24:56;;;;;;;5.90;3.50;;;;;;;;;;5054515;28;20508;-63
2022/09/16 07:27:21;;;;;;;4.30;3.55;;;;;;;;;;5054634;28;20074;-63
2022/09/16 07:29:47;;;;;;;12.10;4.15;;;;;;;;;;5054212;28;20021;-63
2022/09/16 07:32:12;;;;;;;6.45;3.35;;;;;;;;;;5054625;28;20078;-62
2022/09/16 07:34:37;;;;;;;4.35;2.97;;;;;;;;;;5054427;28;20470;-62
2022/09/16 07:37:03;;;;;;;6.32;4.15;;;;;;;;;;5054114;28;20072;-62
2022/09/16 07:39:28;;;;;;;12.85;4.22;;;;;;;;;;5054006;28;20025;-62
2022/09/16 07:41:54;;;;;;;7.57;4.15;;;;;;;;;;5053924;28;20054;-64
2022/09/16 07:44:19;;;;;;;2.63;2.38;;;;;;;;;;5036014;28;20025;-63
2022/09/16 07:46:45;;;;;;;3.47;3.22;;;;;;;;;;5053921;28;20067;-63
2022/09/16 07:49:12;;;;;;;6.47;4.30;;;;;;;;;;5052731;28;20056;-63
2022/09/16 07:51:38;;;;;;;8.55;4.32;;;;;;;;;;5052581;28;20132;-63
2022/09/16 07:54:05;;;;;;;6.63;3.92;;;;;;;;;;5052690;28;20091;-63
2022/09/16 07:56:33;;;;;;;5.38;4.05;;;;;;;;;;5052629;28;20072;-63
2022/09/16 07:58:58;;;;;;;7.03;3.80;;;;;;;;;;5034870;28;20412;-63
2022/09/16 08:01:24;;;;;;;4.00;3.35;;;;;;;;;;5034676;28;20044;-63
2022/09/16 08:03:49;;;;;;;3.28;2.97;;;;;;;;;;5052584;28;20029;-63
2022/09/16 08:06:17;;;;;;;4.97;2.88;;;;;;;;;;5052531;28;20079;-63
2022/09/16 08:08:42;;;;;;;2.70;2.10;;;;;;;;;;5052414;28;20525;-63
2022/09/16 08:11:08;;;;;;;3.75;2.10;;;;;;;;;;5052409;28;20037;-63
2022/09/16 08:13:35;;;;;;;3.20;2.28;;;;;;;;;;5051842;28;20021;-63
2022/09/16 08:16:02;;;;;;;2.97;2.00;;;;;;;;;;5052388;28;20066;-63
2022/09/16 08:18:27;;;;;;;1.85;1.75;;;;;;;;;;5052437;28;20032;-64
2022/09/16 08:20:53;;;;;;;5.28;1.70;;;;;;;;;;5052379;28;20097;-63
2022/09/16 08:23:19;;;;;;;1.20;1.20;;;;;;;;;;5052289;28;20060;-63
2022/09/16 08:25:44;;;;;;;2.00;1.25;;;;;;;;;;5052351;28;20039;-63
2022/09/16 08:28:13;;;;;;;1.90;1.50;;;;;;;;;;5035642;28;20032;-64
2022/09/16 08:30:39;;;;;;;2.85;1.60;;;;;;;;;;5054410;28;20068;-63
2022/09/16 08:33:04;;;;;;;2.00;1.40;;;;;;;;;;5053348;28;20467;-63
2022/09/16 08:35:29;;;;;;;2.22;1.40;;;;;;;;;;5034998;28;20089;-63
2022/09/16 08:37:56;;;;;;;1.98;1.55;;;;;;;;;;5053459;28;20056;-63
2022/09/16 08:40:23;;;;;;;1.60;1.50;;;;;;;;;;5053405;28;20025;-63
2022/09/16 08:42:54;;;;;;;1.85;1.23;;;;;;;;;;5053956;28;20160;-63
2022/09/16 08:45:27;;;;;;;1.67;1.52;;;;;;;;;;5052163;28;20385;-63
2022/09/16 08:48:07;;;;;;;13.10;2.30;;;;;;;;;;5034408;28;20065;-63
2022/09/16 08:50:36;;;;;;;2.42;1.80;;;;;;;;;;5051851;28;20036;-63
2022/09/16 08:53:03;;;;;;;4.22;1.75;;;;;;;;;;5052010;28;20023;-63
2022/09/16 08:55:32;;;;;;;3.22;1.60;;;;;;;;;;5052379;28;20559;-63
2022/09/16 08:57:59;;;;;;;2.47;1.75;;;;;;;;;;5052629;28;20457;-63
2022/09/16 09:00:24;;;;;;;2.45;2.33;;;;;;;;;;5052746;28;20027;-63
2022/09/16 09:02:52;;;;;;;2.55;1.90;;;;;;;;;;5053408;28;20354;-63
2022/09/16 09:05:23;;;;;;;6.00;3.13;;;;;;;;;;5053020;28;20108;-63
2022/09/16 09:07:53;;;;;;;3.00;1.35;;;;;;;;;;5053324;28;20033;-63
2022/09/16 09:10:18;;;;;;;3.75;2.95;;;;;;;;;;5053261;28;20037;-63
2022/09/16 09:13:16;;;;;;;4.10;3.42;;;;;;;;;;5052947;28;20039;-63
2022/09/16 09:15:55;;;;;;;6.65;4.13;;;;;;;;;;5012959;28;20103;-63
2022/09/16 09:18:44;;;;;;;4.72;3.40;;;;;;;;;;5052886;28;20025;-63
2022/09/16 09:21:28;;;;;;;5.45;4.28;;;;;;;;;;5053216;28;20041;-63
2022/09/16 09:23:56;;;;;;;13.43;4.70;;;;;;;;;;5053831;28;20395;-63
2022/09/16 09:26:45;;;;;;;9.30;4.50;;;;;;;;;;5056632;28;20017;-63
2022/09/16 09:29:23;;;;;;;5.10;4.03;;;;;;;;;;5048343;28;20492;-63
2022/09/16 09:32:07;;;;;;;5.88;4.28;;;;;;;;;;5056473;28;20120;-63
2022/09/16 09:34:39;;;;;;;3.85;1.98;;;;;;;;;;5056337;28;20033;-63
2022/09/16 09:37:16;;;;;;;1.83;1.73;;;;;;;;;;5038781;28;20033;-63
2022/09/16 09:39:47;;;;;;;2.22;1.80;;;;;;;;;;5056391;28;20021;-63
2022/09/16 09:42:22;;;;;;;2.03;1.83;;;;;;;;;;5056536;28;20052;-63
2022/09/16 09:45:02;;;;;;;2.55;1.95;;;;;;;;;;5056416;28;20021;-63
2022/09/16 09:47:32;;;;;;;2.42;2.03;;;;;;;;;;5056073;28;20036;-63
2022/09/16 09:50:05;;;;;;;3.20;2.45;;;;;;;;;;5056419;28;20083;-63
2022/09/16 09:52:56;;;;;;;4.78;2.55;;;;;;;;;;5056052;28;20120;-63
2022/09/16 09:55:24;;;;;;;2.67;2.25;;;;;;;;;;5053278;28;20045;-63
2022/09/16 09:58:02;;;;;;;2.10;2.00;;;;;;;;;;5056172;28;20461;-63
2022/09/16 10:00:28;;;;;;;3.05;2.75;;;;;;;;;;5055898;28;20017;-63
2022/09/16 10:03:02;;;;;;;4.63;2.72;;;;;;;;;;5056142;28;20519;-63
2022/09/16 10:05:28;;;;;;;2.50;2.28;;;;;;;;;;5056048;28;20037;-63
2022/09/16 10:08:01;;;;;;;3.90;2.47;;;;;;;;;;5056277;28;20070;-63
2022/09/16 10:10:28;;;;;;;3.13;2.72;;;;;;;;;;5055795;28;20028;-63
2022/09/16 10:12:53;;;;;;;9.25;3.00;;;;;;;;;;5055707;28;20016;-63
2022/09/16 10:15:19;;;;;;;3.95;2.65;;;;;;;;;;5056049;28;20115;-63
2022/09/16 10:17:47;;;;;;;3.35;2.47;;;;;;;;;;5037870;28;20032;-63
2022/09/16 10:20:39;;;;;;;2.72;2.53;;;;;;;;;;5055361;28;20040;-63
2022/09/16 10:23:09;;;;;;;4.32;1.77;;;;;;;;;;5034622;28;20112;-67
2022/09/16 10:25:34;;;;;;;1.70;1.60;;;;;;;;;;5055197;28;20033;-67
2022/09/16 10:28:20;;;;;;;3.15;1.40;;;;;;;;;;5037311;28;20483;-68
2022/09/16 10:30:47;;;;;;;4.40;1.58;;;;;;;;;;5037270;28;20103;-68
2022/09/16 10:33:22;;;;;;;4.47;1.58;;;;;;;;;;5055185;28;20025;-68
2022/09/16 10:35:54;;;;;;;1.35;1.25;;;;;;;;;;5054690;28;20111;-68
2022/09/16 10:38:20;;;;;;;1.17;1.08;;;;;;;;;;5037628;28;20385;-68
2022/09/16 10:40:50;;;;;;;6.97;1.60;;;;;;;;;;5055247;28;20060;-68
2022/09/16 10:43:16;;;;;;;5.80;1.10;;;;;;;;;;5055066;28;20477;-67
2022/09/16 10:45:46;;;;;;;1.70;1.50;;;;;;;;;;5037496;28;20073;-68
2022/09/16 10:48:13;;;;;;;1.25;1.15;;;;;;;;;;5055316;28;20108;-68
2022/09/16 10:50:38;;;;;;;1.48;1.38;;;;;;;;;;5020438;28;20091;-68
2022/09/16 10:53:19;;;;;;;5.15;1.50;;;;;;;;;;5055084;28;20473;-68
2022/09/16 10:55:54;;;;;;;1.63;1.40;;;;;;;;;;5054877;28;20381;-68
2022/09/16 10:58:20;;;;;;;2.85;1.58;;;;;;;;;;5054844;28;20059;-68
2022/09/16 11:00:51;;;;;;;2.38;1.42;;;;;;;;;;5070068;28;20040;-67
2022/09/16 11:03:36;;;;;;;2.08;1.48;;;;;;;;;;5054580;28;20083;-68
2022/09/16 11:06:30;;;;;;;2.78;1.52;;;;;;;;;;5036828;28;20378;-68
2022/09/16 11:09:00;;;;;;;2.45;1.88;;;;;;;;;;5041812;28;20057;-68
2022/09/16 11:11:31;;;;;;;1.98;1.80;;;;;;;;;;5055078;28;20096;-69
2022/09/16 11:14:00;;;;;;;0.70;0.70;;;;;;;;;;5070112;28;20452;-69
2022/09/16 11:16:31;;;;;;;2.33;1.70;;;;;;;;;;5053838;28;20025;-69
2022/09/16 11:19:15;;;;;;;2.55;1.80;;;;;;;;;;5053574;28;20180;-68
2022/09/16 11:21:44;;;;;;;0.90;0.85;;;;;;;;;;5053327;28;20061;-68
2022/09/16 11:24:24;;;;;;;3.05;1.67;;;;;;;;;;5053356;28;20477;-69
2022/09/16 11:26:50;;;;;;;3.72;1.80;;;;;;;;;;5035618;28;20021;-68
2022/09/16 11:29:34;;;;;;;2.35;1.90;;;;;;;;;;5035557;28;20477;-68
2022/09/16 11:31:59;;;;;;;2.20;1.63;;;;;;;;;;5053101;28;20036;-68
2022/09/16 11:34:43;;;;;;;1.83;1.73;;;;;;;;;;5053215;28;20067;-68
2022/09/16 11:37:23;;;;;;;3.13;1.75;;;;;;;;;;5053011;28;20025;-68
2022/09/16 11:39:49;;;;;;;1.73;1.50;;;;;;;;;;5035232;28;20037;-69
2022/09/16 11:42:20;;;;;;;1.98;1.77;;;;;;;;;;5052945;28;20442;-68
2022/09/16 11:45:01;;;;;;;1.25;1.20;;;;;;;;;;5035213;28;20115;-68
2022/09/16 11:47:42;;;;;;;1.65;1.35;;;;;;;;;;5051948;28;20405;-68
2022/09/16 11:50:07;;;;;;;;;;;;;;;;;;5053625;28;20104;-68
2022/09/16 11:52:51;;;;;;;1.45;1.35;;;;;;;;;;5052749;28;20000;-68
2022/09/16 11:55:23;;;;;;;1.40;1.17;;;;;;;;;;5052773;28;20025;-68
2022/09/16 11:57:58;;;;;;;5.13;1.75;;;;;;;;;;5052691;28;20029;-68
2022/09/16 12:00:23;;;;;;;9.30;1.92;;;;;;;;;;5052591;28;20057;-67
2022/09/16 12:03:08;;;;;;;1.70;1.30;;;;;;;;;;5052592;28;20053;-68
2022/09/16 12:05:52;;;;;;;3.47;1.17;;;;;;;;;;5052799;28;20032;-68
2022/09/16 12:08:23;;;;;;;1.30;1.05;;;;;;;;;;5052497;28;20035;-67
2022/09/16 12:10:51;;;;;;;1.30;1.20;;;;;;;;;;5051126;28;20526;-67
2022/09/16 12:13:33;;;;;;;2.55;0.90;;;;;;;;;;5052461;28;20017;-67
2022/09/16 12:16:04;;;;;;;1.70;1.08;;;;;;;;;;5052339;28;20032;-68
2022/09/16 12:18:31;;;;;;;;;;;;;;;;;;5052843;28;20036;-67
2022/09/16 12:21:04;;;;;;;2.30;1.30;;;;;;;;;;5052580;28;19905;-67
2022/09/16 12:23:32;;;;;;;1.30;1.20;;;;;;;;;;5052612;28;20068;-67
2022/09/16 12:25:57;;;;;;;1.92;1.35;;;;;;;;;;5052308;28;20032;-68
2022/09/16 12:28:41;;;;;;;2.22;1.00;;;;;;;;;;5052230;28;20029;-68
2022/09/16 12:31:12;;;;;;;2.20;0.98;;;;;;;;;;5052439;28;20037;-68
2022/09/16 12:33:42;;;;;;;1.95;1.13;;;;;;;;;;5052249;28;20484;-68
2022/09/16 12:36:10;;;;;;;2.28;1.40;;;;;;;;;;5052560;28;20056;-68
2022/09/16 12:38:35;;;;;;;1.83;1.23;;;;;;;;;;5052194;28;20017;-68
2022/09/16 12:41:19;;;;;;;1.80;1.70;;;;;;;;;;5052000;28;20056;-68
2022/09/16 12:44:03;;;;;;;1.45;1.35;;;;;;;;;;5052179;28;20025;-68
2022/09/16 12:46:52;;;;;;;2.38;2.00;;;;;;;;;;5052128;28;20028;-68
2022/09/16 12:49:20;;;;;;;3.00;1.73;;;;;;;;;;5028945;28;20045;-68
2022/09/16 12:52:01;;;;;;;2.40;2.17;;;;;;;;;;5034949;28;20100;-68
2022/09/16 12:54:51;;;;;;;2.90;1.90;;;;;;;;;;5052660;28;20052;-68
2022/09/16 12:57:35;;;;;;;2.40;2.20;;;;;;;;;;5052845;28;20036;-68
2022/09/16 13:00:09;;;;;;;1.60;1.50;;;;;;;;;;5054775;28;20032;-68
2022/09/16 13:02:36;;;;;;;1.92;1.83;;;;;;;;;;5056306;28;20037;-68
2022/09/16 13:05:19;;;;;;;2.13;1.60;;;;;;;;;;5055990;28;20020;-68
2022/09/16 13:07:48;;;;;;;3.58;1.38;;;;;;;;;;5038211;28;20418;-67
2022/09/16 13:10:27;;;;;;;1.73;1.35;;;;;;;;;;5071272;28;20025;-68
2022/09/16 13:12:53;;;;;;;1.40;1.25;;;;;;;;;;5055513;28;20043;-68
2022/09/16 13:15:27;;;;;;;1.48;1.25;;;;;;;;;;5037816;28;20079;-68
2022/09/16 13:17:53;;;;;;;1.42;1.33;;;;;;;;;;5037417;28;20112;-68
2022/09/16 13:20:19;;;;;;;1.73;1.42;;;;;;;;;;5037413;28;20607;-68
2022/09/16 13:22:56;;;;;;;2.10;1.50;;;;;;;;;;5055434;28;20060;-68
2022/09/16 13:25:25;;;;;;;1.60;1.50;;;;;;;;;;5055401;28;20032;-68
2022/09/16 13:28:01;;;;;;;2.17;1.52;;;;;;;;;;5055119;28;20016;-69
2022/09/16 13:30:28;;;;;;;1.92;1.83;;;;;;;;;;5037491;28;20048;-68
2022/09/16 13:32:53;;;;;;;2.97;2.22;;;;;;;;;;5055250;28;20385;-68
2022/09/16 13:35:19;;;;;;;1.98;1.73;;;;;;;;;;5053982;28;20029;-68
2022/09/16 13:37:52;;;;;;;1.42;1.33;;;;;;;;;;5055235;28;20009;-67
2022/09/16 13:40:27;;;;;;;1.67;1.58;;;;;;;;;;5054951;28;20107;-68
2022/09/16 13:43:08;;;;;;;4.50;2.30;;;;;;;;;;5055357;28;20128;-68
2022/09/16 13:45:35;;;;;;;1.73;1.63;;;;;;;;;;5055031;28;20037;-68
2022/09/16 13:48:17;;;;;;;1.08;0.98;;;;;;;;;;5055142;28;20021;-68
2022/09/16 13:50:45;;;;;;;1.98;1.05;;;;;;;;;;5054967;28;20036;-68
2022/09/16 13:53:19;;;;;;;1.38;1.17;;;;;;;;;;5054937;28;20044;-68
2022/09/16 13:55:46;;;;;;;1.13;1.08;;;;;;;;;;5054902;28;20033;-68
2022/09/16 13:58:17;;;;;;;1.00;1.00;;;;;;;;;;5054866;28;20024;-68
2022/09/16 14:00:49;;;;;;;9.90;3.20;;;;;;;;;;5055078;28;20090;-68
2022/09/16 14:03:17;;;;;;;1.77;1.10;;;;;;;;;;5036912;28;20480;-68
2022/09/16 14:06:00;;;;;;;3.35;1.30;;;;;;;;;;5054739;28;20025;-68
2022/09/16 14:08:34;;;;;;;1.10;1.10;;;;;;;;;;5054669;28;20029;-69
2022/09/16 14:11:18;;;;;;;1.40;1.30;;;;;;;;;;5054717;28;20109;-68
2022/09/16 14:13:45;;;;;;;2.50;1.20;;;;;;;;;;5055928;28;20029;-67
2022/09/16 14:16:29;;;;;;;1.13;1.13;;;;;;;;;;5054673;28;20025;-68
2022/09/16 14:19:21;;;;;;;1.38;1.27;;;;;;;;;;5054855;28;20043;-68
2022/09/16 14:21:59;;;;;;;2.97;1.50;;;;;;;;;;5054488;28;20036;-68
2022/09/16 14:24:25;;;;;;;1.25;1.15;;;;;;;;;;5054356;28;20438;-68
2022/09/16 14:26:52;;;;;;;1.45;1.08;;;;;;;;;;5053357;28;20059;-68
2022/09/16 14:29:17;;;;;;;1.38;1.27;;;;;;;;;;5054424;28;20044;-68
2022/09/16 14:31:44;;;;;;;1.17;1.08;;;;;;;;;;5036680;28;20017;-68
2022/09/16 14:34:13;;;;;;;1.83;1.10;;;;;;;;;;5053828;28;20028;-68
2022/09/16 14:36:39;;;;;;;1.17;1.10;;;;;;;;;;5053137;28;20259;-68
2022/09/16 14:39:07;;;;;;;1.10;1.10;;;;;;;;;;5053668;28;20116;-68
2022/09/16 14:41:35;;;;;;;0.90;0.90;;;;;;;;;;5051792;28;20049;-68
2022/09/16 14:44:19;;;;;;;0.93;0.93;;;;;;;;;;5053582;28;20051;-69
2022/09/16 14:46:50;;;;;;;1.33;0.90;;;;;;;;;;5053504;28;20491;-69
2022/09/16 14:49:16;;;;;;;0.90;0.90;;;;;;;;;;5053403;28;20469;-68
2022/09/16 14:51:46;;;;;;;0.90;0.90;;;;;;;;;;5053410;28;20032;-68
2022/09/16 14:54:16;;;;;;;2.28;1.10;;;;;;;;;;5053725;28;20025;-68
2022/09/16 14:56:41;;;;;;;0.80;0.80;;;;;;;;;;5053418;28;20016;-68
2022/09/16 14:59:11;;;;;;;1.00;1.00;;;;;;;;;;5053690;28;20025;-68
2022/09/16 15:01:37;;;;;;;1.75;1.00;;;;;;;;;;5053578;28;20033;-69